createdAt,value
2019-02-19T00:02:17.987Z,10.23
2019-02-19T00:04:50.210Z,12.35
2019-02-19T00:07:22.462Z,6.25
2019-02-19T00:09:54.756Z,6.55
2019-02-19T00:12:27.018Z,7.65
2019-02-19T00:15:07.712Z,7.47
2019-02-19T00:17:33.243Z,8.98
2019-02-19T00:20:05.538Z,6.90
2019-02-19T00:22:37.818Z,6.03
2019-02-19T00:25:10.115Z,11.15
2019-02-19T00:27:42.373Z,7.37
2019-02-19T00:30:14.608Z,9.30
2019-02-19T00:32:46.854Z,10.65
2019-02-19T00:35:19.071Z,9.95
2019-02-19T00:37:51.355Z,14.15
2019-02-19T00:40:23.606Z,15.08
2019-02-19T00:42:55.851Z,16.82
2019-02-19T00:45:28.090Z,14.75
2019-02-19T00:48:00.403Z,16.40
2019-02-19T00:50:32.670Z,13.15
2019-02-19T00:53:04.917Z,8.95
2019-02-19T00:55:37.232Z,9.45
2019-02-19T00:58:09.539Z,9.68
2019-02-19T01:00:41.794Z,15.72
2019-02-19T01:03:14.039Z,15.13
2019-02-19T01:05:46.273Z,10.18
2019-02-19T01:08:18.894Z,8.48
2019-02-19T01:10:51.124Z,6.95
2019-02-19T01:13:23.375Z,8.50
2019-02-19T01:15:55.609Z,6.90
2019-02-19T01:18:27.889Z,15.28
2019-02-19T01:21:00.107Z,8.58
2019-02-19T01:23:32.368Z,9.83
2019-02-19T01:26:04.583Z,14.63
2019-02-19T01:28:36.853Z,16.15
2019-02-19T01:31:09.079Z,13.75
2019-02-19T01:33:41.414Z,13.15
2019-02-19T01:36:13.726Z,13.70
2019-02-19T01:38:45.979Z,17.02
2019-02-19T01:41:18.216Z,17.10
2019-02-19T01:43:50.548Z,21.62
2019-02-19T01:46:22.803Z,15.20
2019-02-19T01:48:55.046Z,16.37
2019-02-19T01:51:27.389Z,17.05
2019-02-19T01:53:59.634Z,10.60
2019-02-19T01:56:31.899Z,19.00
2019-02-19T01:59:04.148Z,14.87
2019-02-19T02:01:36.375Z,15.98
2019-02-19T02:04:08.623Z,11.45
2019-02-19T02:06:40.883Z,19.27
2019-02-19T02:09:13.128Z,13.03
2019-02-19T02:11:45.379Z,17.30
2019-02-19T02:14:17.736Z,15.00
2019-02-19T02:16:49.988Z,21.40
2019-02-19T02:19:22.220Z,13.95
2019-02-19T02:21:54.512Z,16.50
2019-02-19T02:24:26.752Z,10.08
2019-02-19T02:26:59.005Z,14.18
2019-02-19T02:29:31.248Z,12.90
2019-02-19T02:32:03.578Z,16.23
2019-02-19T02:34:35.804Z,9.38
2019-02-19T02:37:08.051Z,12.82
2019-02-19T02:39:40.296Z,9.55
2019-02-19T02:42:12.553Z,15.53
2019-02-19T02:44:44.764Z,16.35
2019-02-19T02:47:17.015Z,20.52
2019-02-19T02:49:49.287Z,17.27
2019-02-19T02:52:21.505Z,16.50
2019-02-19T02:54:53.739Z,16.17
2019-02-19T02:57:25.978Z,19.73
2019-02-19T02:59:58.236Z,15.38
2019-02-19T03:02:30.485Z,12.58
2019-02-19T03:05:02.747Z,11.33
2019-02-19T03:07:36.635Z,13.03
2019-02-19T03:10:08.871Z,12.78
2019-02-19T03:12:41.114Z,11.40
2019-02-19T03:15:13.933Z,11.55
2019-02-19T03:17:46.181Z,11.30
2019-02-19T03:20:18.453Z,13.55
2019-02-19T03:22:50.706Z,10.55
2019-02-19T03:25:22.964Z,10.25
2019-02-19T03:27:55.202Z,10.00
2019-02-19T03:30:27.509Z,11.53
2019-02-19T03:32:59.735Z,12.28
2019-02-19T03:35:31.993Z,13.53
2019-02-19T03:38:04.226Z,12.73
2019-02-19T03:40:36.764Z,11.48
2019-02-19T03:43:08.995Z,14.50
2019-02-19T03:45:41.247Z,16.45
2019-02-19T03:48:13.632Z,10.40
2019-02-19T03:50:45.885Z,10.53
2019-02-19T03:53:18.131Z,12.68
2019-02-19T03:55:50.544Z,13.93
2019-02-19T03:58:22.794Z,13.08
2019-02-19T04:00:55.134Z,11.18
2019-02-19T04:03:27.373Z,10.00
2019-02-19T04:05:59.652Z,7.65
2019-02-19T04:08:31.877Z,12.43
2019-02-19T04:11:04.129Z,14.63
2019-02-19T04:13:36.358Z,10.20
2019-02-19T04:16:08.605Z,9.43
2019-02-19T04:18:40.832Z,11.03
2019-02-19T04:21:13.192Z,12.73
2019-02-19T04:23:45.435Z,11.50
2019-02-19T04:26:17.675Z,8.50
2019-02-19T04:28:49.907Z,13.58
2019-02-19T04:31:22.180Z,9.98
2019-02-19T04:33:54.469Z,11.93
2019-02-19T04:36:26.719Z,9.60
2019-02-19T04:38:58.959Z,9.98
2019-02-19T04:41:31.189Z,8.83
2019-02-19T04:44:03.424Z,12.28
2019-02-19T04:46:35.676Z,11.70
2019-02-19T04:49:07.907Z,14.95
2019-02-19T04:51:40.174Z,10.05
2019-02-19T04:54:12.476Z,9.05
2019-02-19T04:56:44.792Z,12.80
2019-02-19T04:59:17.016Z,17.02
2019-02-19T05:01:49.301Z,12.30
2019-02-19T05:04:21.527Z,13.28
2019-02-19T05:06:53.797Z,16.43
2019-02-19T05:09:26.043Z,15.50
2019-02-19T05:11:58.337Z,15.10
2019-02-19T05:14:30.631Z,8.63
2019-02-19T05:17:02.879Z,11.88
2019-02-19T05:19:35.129Z,12.35
2019-02-19T05:22:07.367Z,17.42
2019-02-19T05:24:39.608Z,10.53
2019-02-19T05:27:11.860Z,13.55
2019-02-19T05:29:44.088Z,11.18
2019-02-19T05:32:16.352Z,12.03
2019-02-19T05:34:48.660Z,15.93
2019-02-19T05:37:20.904Z,13.95
2019-02-19T05:39:53.213Z,15.40
2019-02-19T05:42:25.484Z,12.95
2019-02-19T05:44:57.728Z,20.48
2019-02-19T05:47:29.992Z,17.25
2019-02-19T05:50:02.205Z,14.85
2019-02-19T05:52:34.448Z,23.77
2019-02-19T05:55:07.433Z,17.40
2019-02-19T05:57:39.718Z,22.07
2019-02-19T06:00:12.541Z,17.35
2019-02-19T06:02:44.840Z,25.00
2019-02-19T06:05:17.104Z,31.55
2019-02-19T06:07:49.348Z,29.12
2019-02-19T06:10:21.575Z,22.82
2019-02-19T06:12:54.006Z,34.50
2019-02-19T06:15:26.259Z,27.30
2019-02-19T06:17:58.540Z,24.67
2019-02-19T06:20:30.769Z,25.37
2019-02-19T06:23:03.013Z,24.18
2019-02-19T06:25:35.263Z,23.38
2019-02-19T06:28:07.513Z,20.10
2019-02-19T06:30:39.769Z,16.10
2019-02-19T06:33:12.023Z,22.60
2019-02-19T06:35:44.273Z,18.98
2019-02-19T06:38:16.516Z,14.90
2019-02-19T06:40:48.779Z,21.82
2019-02-19T06:43:21.039Z,22.27
2019-02-19T06:45:53.291Z,20.32
2019-02-19T06:48:25.551Z,24.23
2019-02-19T06:50:57.791Z,26.60
2019-02-19T06:53:30.068Z,19.52
2019-02-19T06:56:02.310Z,23.20
2019-02-19T06:58:34.555Z,25.30
2019-02-19T07:01:06.836Z,29.52
2019-02-19T07:03:40.726Z,27.93
2019-02-19T07:06:12.964Z,26.62
2019-02-19T07:08:45.215Z,21.97
2019-02-19T07:11:18.439Z,21.93
2019-02-19T07:13:50.713Z,20.55
2019-02-19T07:16:22.954Z,25.17
2019-02-19T07:18:55.211Z,25.25
2019-02-19T07:21:27.454Z,17.23
2019-02-19T07:24:04.375Z,15.13
2019-02-19T07:26:33.679Z,12.65
2019-02-19T07:29:05.930Z,14.47
2019-02-19T07:31:38.150Z,20.20
2019-02-19T07:34:10.422Z,18.67
2019-02-19T07:36:42.683Z,21.12
2019-02-19T07:39:14.946Z,18.30
2019-02-19T07:41:47.254Z,21.60
2019-02-19T07:44:19.497Z,15.48
2019-02-19T07:46:51.725Z,22.50
2019-02-19T07:49:23.977Z,16.97
2019-02-19T07:51:56.216Z,19.75
2019-02-19T07:54:28.460Z,17.80
2019-02-19T07:57:00.707Z,18.42
2019-02-19T07:59:32.961Z,20.80
2019-02-19T08:02:05.187Z,18.57
2019-02-19T08:04:37.407Z,20.37
2019-02-19T08:07:09.664Z,14.28
2019-02-19T08:09:41.905Z,22.62
2019-02-19T08:12:14.132Z,25.15
2019-02-19T08:14:46.388Z,16.82
2019-02-19T08:17:18.646Z,18.98
2019-02-19T08:19:50.890Z,15.43
2019-02-19T08:22:23.125Z,19.07
2019-02-19T08:24:55.351Z,12.40
2019-02-19T08:27:27.599Z,24.45
2019-02-19T08:29:59.831Z,16.40
2019-02-19T08:32:32.194Z,23.52
2019-02-19T08:35:04.997Z,23.38
2019-02-19T08:37:37.246Z,22.32
2019-02-19T08:40:09.579Z,19.27
2019-02-19T08:42:41.892Z,22.05
2019-02-19T08:45:14.133Z,26.95
2019-02-19T08:47:46.432Z,25.27
2019-02-19T08:50:18.692Z,23.22
2019-02-19T08:52:50.927Z,20.95
2019-02-19T08:55:23.179Z,16.32
2019-02-19T08:57:55.488Z,26.23
2019-02-19T09:00:27.945Z,14.50
2019-02-19T09:03:00.308Z,19.48
2019-02-19T09:05:32.678Z,19.52
2019-02-19T09:08:04.917Z,28.98
2019-02-19T09:10:37.491Z,18.67
2019-02-19T09:13:09.780Z,23.02
2019-02-19T09:15:42.014Z,19.62
2019-02-19T09:18:14.256Z,28.83
2019-02-19T09:20:46.536Z,25.08
2019-02-19T09:23:18.794Z,18.15
2019-02-19T09:25:51.044Z,19.35
2019-02-19T09:28:23.305Z,20.90
2019-02-19T09:30:55.542Z,17.27
2019-02-19T09:33:27.854Z,21.48
2019-02-19T09:36:00.092Z,19.92
2019-02-19T09:38:32.344Z,21.42
2019-02-19T09:41:04.650Z,28.98
2019-02-19T09:43:36.904Z,25.08
2019-02-19T09:46:09.143Z,24.23
2019-02-19T09:48:41.400Z,24.07
2019-02-19T09:51:13.728Z,20.90
2019-02-19T09:53:46.004Z,21.00
2019-02-19T09:56:18.283Z,20.57
2019-02-19T09:58:50.538Z,17.42
2019-02-19T10:01:22.796Z,19.37
2019-02-19T10:03:55.045Z,17.48
2019-02-19T10:06:27.278Z,12.20
2019-02-19T10:08:59.621Z,20.12
2019-02-19T10:11:31.910Z,25.23
2019-02-19T10:14:04.163Z,18.60
2019-02-19T10:16:41.652Z,15.83
2019-02-19T10:19:10.446Z,13.83
2019-02-19T10:21:42.787Z,20.08
2019-02-19T10:24:15.127Z,26.57
2019-02-19T10:26:47.361Z,13.28
2019-02-19T10:29:19.608Z,12.43
2019-02-19T10:31:52.898Z,16.67
2019-02-19T10:34:25.197Z,13.35
2019-02-19T10:36:57.426Z,12.55
2019-02-19T10:39:29.680Z,18.82
2019-02-19T10:42:01.911Z,14.53
2019-02-19T10:44:34.220Z,12.70
2019-02-19T10:47:06.504Z,22.75
2019-02-19T10:49:38.799Z,13.20
2019-02-19T10:52:11.032Z,12.50
2019-02-19T10:54:43.274Z,16.32
2019-02-19T10:57:15.510Z,9.58
2019-02-19T10:59:47.760Z,10.78
2019-02-19T11:02:20.034Z,11.00
2019-02-19T11:04:52.297Z,12.35
2019-02-19T11:07:24.516Z,10.25
2019-02-19T11:09:56.758Z,8.63
2019-02-19T11:12:29.001Z,13.50
2019-02-19T11:15:01.296Z,7.85
2019-02-19T11:17:33.540Z,11.50
2019-02-19T11:20:15.756Z,9.30
2019-02-19T11:22:47.987Z,7.72
2019-02-19T11:25:20.340Z,9.20
2019-02-19T11:27:52.577Z,15.13
2019-02-19T11:30:24.832Z,11.05
2019-02-19T11:32:57.066Z,9.70
2019-02-19T11:35:29.336Z,11.35
2019-02-19T11:38:01.552Z,9.33
2019-02-19T11:40:33.809Z,12.47
2019-02-19T11:43:06.043Z,21.57
2019-02-19T11:45:38.294Z,7.55
2019-02-19T11:48:10.542Z,12.85
2019-02-19T11:50:43.097Z,9.18
2019-02-19T11:53:15.320Z,6.28
2019-02-19T11:55:47.575Z,8.70
2019-02-19T11:58:19.825Z,7.42
2019-02-19T12:00:52.070Z,7.65
2019-02-19T12:03:24.282Z,5.80
2019-02-19T12:05:56.532Z,4.33
2019-02-19T12:08:28.794Z,6.85
2019-02-19T12:11:01.112Z,5.25
2019-02-19T12:13:33.320Z,7.25
2019-02-19T12:16:05.658Z,8.60
2019-02-19T12:18:45.668Z,7.10
2019-02-19T12:21:11.861Z,7.45
2019-02-19T12:23:44.110Z,8.18
2019-02-19T12:26:16.355Z,6.55
2019-02-19T12:28:49.236Z,9.20
2019-02-19T12:31:21.611Z,5.97
2019-02-19T12:33:53.869Z,7.58
2019-02-19T12:36:26.206Z,8.38
2019-02-19T12:38:58.435Z,6.62
2019-02-19T12:41:30.684Z,7.17
2019-02-19T12:44:02.970Z,8.45
2019-02-19T12:46:35.223Z,8.20
2019-02-19T12:49:07.460Z,8.00
2019-02-19T12:51:39.726Z,5.67
2019-02-19T12:54:11.944Z,8.38
2019-02-19T12:56:44.342Z,10.95
2019-02-19T12:59:16.579Z,4.47
2019-02-19T13:01:49.287Z,8.95
2019-02-19T13:04:21.535Z,7.00
2019-02-19T13:06:54.235Z,14.23
2019-02-19T13:09:26.478Z,9.33
2019-02-19T13:11:58.728Z,7.87
2019-02-19T13:14:31.045Z,7.60
2019-02-19T13:17:03.287Z,5.58
2019-02-19T13:19:35.508Z,6.03
2019-02-19T13:22:07.865Z,7.05
2019-02-19T13:24:40.095Z,5.58
2019-02-19T13:27:12.331Z,8.33
2019-02-19T13:29:44.557Z,4.87
2019-02-19T13:32:16.815Z,8.85
2019-02-19T13:34:49.325Z,11.48
2019-02-19T13:37:22.486Z,10.40
2019-02-19T13:39:54.792Z,7.95
2019-02-19T13:42:27.045Z,7.28
2019-02-19T13:44:59.265Z,8.68
2019-02-19T13:47:31.500Z,5.70
2019-02-19T13:50:05.407Z,6.65
2019-02-19T13:52:39.309Z,5.35
2019-02-19T13:55:13.162Z,4.97
2019-02-19T13:57:45.419Z,7.33
2019-02-19T14:00:21.997Z,5.62
2019-02-19T14:02:54.236Z,3.37
2019-02-19T14:05:26.467Z,3.65
2019-02-19T14:07:58.738Z,8.53
2019-02-19T14:10:30.943Z,4.92
2019-02-19T14:13:03.270Z,5.60
2019-02-19T14:15:49.270Z,10.28
2019-02-19T14:18:23.169Z,5.37
2019-02-19T14:21:13.055Z,4.85
2019-02-19T14:23:46.924Z,7.92
2019-02-19T14:26:26.857Z,4.90
2019-02-19T14:29:17.124Z,4.57
2019-02-19T14:31:51.031Z,6.90
2019-02-19T14:34:24.918Z,4.37
2019-02-19T14:36:58.824Z,12.13
2019-02-19T14:39:35.647Z,9.23
2019-02-19T14:42:09.528Z,5.00
2019-02-19T14:44:43.403Z,6.87
2019-02-19T14:47:17.313Z,8.23
2019-02-19T14:49:54.756Z,7.28
2019-02-19T14:52:40.480Z,5.95
2019-02-19T14:55:17.085Z,6.28
2019-02-19T14:57:56.931Z,4.58
2019-02-19T15:00:36.749Z,12.10
2019-02-19T15:03:19.468Z,6.67
2019-02-19T15:06:09.608Z,6.65
2019-02-19T15:08:59.862Z,6.47
2019-02-19T15:11:36.463Z,5.00
2019-02-19T15:14:26.780Z,6.55
2019-02-19T15:17:16.456Z,8.15
2019-02-19T15:20:06.693Z,5.80
2019-02-19T15:22:56.683Z,13.95
2019-02-19T15:25:30.608Z,8.87
2019-02-19T15:28:04.492Z,5.28
2019-02-19T15:30:50.183Z,7.75
2019-02-19T15:33:36.184Z,9.10
2019-02-19T15:36:12.704Z,7.65
2019-02-19T15:38:49.540Z,7.70
2019-02-19T15:41:41.600Z,8.80
2019-02-19T15:44:18.181Z,6.37
2019-02-19T15:47:08.195Z,6.35
2019-02-19T15:49:48.179Z,8.03
2019-02-19T15:52:22.018Z,9.23
2019-02-19T15:54:56.007Z,8.83
2019-02-19T15:57:38.859Z,9.65
2019-02-19T16:00:24.644Z,9.18
2019-02-19T16:03:04.237Z,5.67
2019-02-19T16:05:53.216Z,9.23
2019-02-19T16:08:38.999Z,8.00
2019-02-19T16:11:12.870Z,8.43
2019-02-19T16:13:53.310Z,5.78
2019-02-19T16:16:33.389Z,6.70
2019-02-19T16:19:22.343Z,4.93
2019-02-19T16:22:08.300Z,9.48
2019-02-19T16:24:42.193Z,8.70
2019-02-19T16:27:28.127Z,6.83
2019-02-19T16:30:07.527Z,5.50
2019-02-19T16:32:44.109Z,10.53
2019-02-19T16:35:17.993Z,8.10
2019-02-19T16:37:52.020Z,6.15
2019-02-19T16:40:25.907Z,5.50
2019-02-19T16:43:08.570Z,5.50
2019-02-19T16:45:45.131Z,5.42
2019-02-19T16:48:31.018Z,6.90
2019-02-19T16:51:04.912Z,6.92
2019-02-19T16:53:54.843Z,8.75
2019-02-19T16:56:34.655Z,3.70
2019-02-19T16:59:26.958Z,9.37
2019-02-19T17:02:05.479Z,7.43
2019-02-19T17:04:54.155Z,11.43
2019-02-19T17:07:28.036Z,7.60
2019-02-19T17:10:14.151Z,4.67
2019-02-19T17:12:53.299Z,7.20
2019-02-19T17:15:26.942Z,6.30
2019-02-19T17:18:00.813Z,8.05
2019-02-19T17:20:37.232Z,9.00
2019-02-19T17:23:26.130Z,6.08
2019-02-19T17:26:00.011Z,6.80
2019-02-19T17:28:42.692Z,8.18
2019-02-19T17:31:19.583Z,12.80
2019-02-19T17:34:09.647Z,18.27
2019-02-19T17:36:43.507Z,17.80
2019-02-19T17:39:33.767Z,13.72
2019-02-19T17:42:07.663Z,10.75
2019-02-19T17:44:41.537Z,11.60
2019-02-19T17:47:21.089Z,6.17
2019-02-19T17:50:11.278Z,6.12
2019-02-19T17:52:53.992Z,9.37
2019-02-19T17:55:39.851Z,5.80
2019-02-19T17:58:22.528Z,13.58
2019-02-19T18:00:56.489Z,9.65
2019-02-19T18:03:46.787Z,10.85
2019-02-19T18:06:38.823Z,6.45
2019-02-19T18:09:12.684Z,14.35
2019-02-19T18:11:49.236Z,5.78
2019-02-19T18:14:23.377Z,5.53
2019-02-19T18:16:59.953Z,7.00
2019-02-19T18:19:32.188Z,7.85
2019-02-19T18:22:04.432Z,7.63
2019-02-19T18:24:36.659Z,7.53
2019-02-19T18:27:08.929Z,9.45
2019-02-19T18:29:41.147Z,13.28
2019-02-19T18:32:13.471Z,7.03
2019-02-19T18:34:45.683Z,12.88
2019-02-19T18:37:17.930Z,6.05
2019-02-19T18:39:50.167Z,8.28
2019-02-19T18:42:22.482Z,11.65
2019-02-19T18:44:54.698Z,6.12
2019-02-19T18:47:26.952Z,5.03
2019-02-19T18:49:59.172Z,9.65
2019-02-19T18:52:31.404Z,6.55
2019-02-19T18:55:03.911Z,16.85
2019-02-19T18:57:36.143Z,9.93
2019-02-19T19:00:09.912Z,9.03
2019-02-19T19:02:42.234Z,10.32
2019-02-19T19:05:14.512Z,6.72
2019-02-19T19:07:46.768Z,10.53
2019-02-19T19:10:18.993Z,8.60
2019-02-19T19:12:51.239Z,21.20
2019-02-19T19:15:23.472Z,14.65
2019-02-19T19:17:55.710Z,13.03
2019-02-19T19:20:27.944Z,10.48
2019-02-19T19:23:00.179Z,8.83
2019-02-19T19:25:32.435Z,9.00
2019-02-19T19:28:04.738Z,14.05
2019-02-19T19:30:36.979Z,10.38
2019-02-19T19:33:09.221Z,7.65
2019-02-19T19:35:41.456Z,10.23
2019-02-19T19:38:13.703Z,13.58
2019-02-19T19:40:45.939Z,12.85
2019-02-19T19:43:18.226Z,12.37
2019-02-19T19:45:50.544Z,8.05
2019-02-19T19:48:22.771Z,8.28
2019-02-19T19:50:55.002Z,7.83
2019-02-19T19:53:27.309Z,11.03
2019-02-19T19:55:59.544Z,9.45
2019-02-19T19:58:31.776Z,7.40
2019-02-19T20:01:04.037Z,8.98
2019-02-19T20:03:36.268Z,10.15
2019-02-19T20:06:08.506Z,12.37
2019-02-19T20:08:40.988Z,10.43
2019-02-19T20:11:13.227Z,14.87
2019-02-19T20:13:45.701Z,10.43
2019-02-19T20:16:17.925Z,9.75
2019-02-19T20:18:50.208Z,10.15
2019-02-19T20:21:26.903Z,11.68
2019-02-19T20:23:56.452Z,11.55
2019-02-19T20:26:28.711Z,11.68
2019-02-19T20:29:02.750Z,10.38
2019-02-19T20:31:34.907Z,9.20
2019-02-19T20:34:07.131Z,10.70
2019-02-19T20:36:39.372Z,9.03
2019-02-19T20:39:11.671Z,12.45
2019-02-19T20:41:43.910Z,11.15
2019-02-19T20:44:16.153Z,13.25
2019-02-19T20:46:48.392Z,9.73
2019-02-19T20:49:20.613Z,11.93
2019-02-19T20:51:52.861Z,15.38
2019-02-19T20:54:25.090Z,13.25
2019-02-19T20:56:57.341Z,16.60
2019-02-19T20:59:29.569Z,22.50
2019-02-19T21:02:01.827Z,11.18
2019-02-19T21:04:34.095Z,12.95
2019-02-19T21:07:06.367Z,12.67
2019-02-19T21:09:43.752Z,13.65
2019-02-19T21:12:12.596Z,20.60
2019-02-19T21:14:44.821Z,18.42
2019-02-19T21:17:17.065Z,18.57
2019-02-19T21:19:49.947Z,18.62
2019-02-19T21:22:22.192Z,22.13
2019-02-19T21:24:54.420Z,13.62
2019-02-19T21:27:26.694Z,14.68
2019-02-19T21:29:59.224Z,12.03
2019-02-19T21:32:31.463Z,9.40
2019-02-19T21:35:04.361Z,15.45
2019-02-19T21:37:36.599Z,12.43
2019-02-19T21:40:13.189Z,10.53
2019-02-19T21:42:45.422Z,9.48
2019-02-19T21:45:17.648Z,8.28
2019-02-19T21:47:50.028Z,17.98
2019-02-19T21:50:22.260Z,15.13
2019-02-19T21:52:54.507Z,10.98
2019-02-19T21:55:26.767Z,11.90
2019-02-19T21:57:59.763Z,11.03
2019-02-19T22:00:32.078Z,12.82
2019-02-19T22:03:04.317Z,12.15
2019-02-19T22:05:36.635Z,11.97
2019-02-19T22:08:08.944Z,9.20
2019-02-19T22:10:41.196Z,18.67
2019-02-19T22:13:13.428Z,18.50
2019-02-19T22:15:45.903Z,12.05
2019-02-19T22:18:18.204Z,11.35
2019-02-19T22:20:52.069Z,14.58
2019-02-19T22:23:24.306Z,16.42
2019-02-19T22:25:56.552Z,14.40
2019-02-19T22:28:28.816Z,15.83
2019-02-19T22:31:01.048Z,12.98
2019-02-19T22:33:34.317Z,15.40
2019-02-19T22:36:06.605Z,13.45
2019-02-19T22:38:38.873Z,16.60
2019-02-19T22:41:11.160Z,22.13
2019-02-19T22:43:43.410Z,23.62
2019-02-19T22:46:15.644Z,22.30
2019-02-19T22:48:47.904Z,18.12
2019-02-19T22:51:20.134Z,21.95
2019-02-19T22:53:56.475Z,16.87
2019-02-19T22:56:33.279Z,21.80
2019-02-19T22:59:05.516Z,20.15
2019-02-19T23:01:43.131Z,14.30
2019-02-19T23:04:15.371Z,16.60
2019-02-19T23:06:47.657Z,11.88
2019-02-19T23:09:19.943Z,15.32
2019-02-19T23:11:52.205Z,12.73
2019-02-19T23:14:25.377Z,16.27
2019-02-19T23:16:57.626Z,13.10
2019-02-19T23:19:29.883Z,9.03
2019-02-19T23:22:02.333Z,11.95
2019-02-19T23:24:34.605Z,11.35
2019-02-19T23:27:06.816Z,10.78
2019-02-19T23:29:39.060Z,11.57
2019-02-19T23:32:11.296Z,9.05
2019-02-19T23:34:43.810Z,12.03
2019-02-19T23:37:16.116Z,11.05
2019-02-19T23:39:48.354Z,10.32
2019-02-19T23:42:20.589Z,11.05
2019-02-19T23:44:52.832Z,13.05
2019-02-19T23:47:25.052Z,13.60
2019-02-19T23:49:57.288Z,11.73
2019-02-19T23:52:30.612Z,11.57
2019-02-19T23:55:03.221Z,8.55
2019-02-19T23:57:35.456Z,8.63
